sensor_id;sensor_type;location;lat;lon;timestamp;P1;durP1;ratioP1;P2;durP2;ratioP2
60502;SDS011;51448;51.660;5.824;2024-02-28T00:01:33;40.20;;;22.80;;
60502;SDS011;51448;51.660;5.824;2024-02-28T00:04:00;47.35;;;25.95;;
60502;SDS011;51448;51.660;5.824;2024-02-28T00:06:28;42.78;;;24.10;;
60502;SDS011;51448;51.660;5.824;2024-02-28T00:08:55;42.20;;;24.52;;
60502;SDS011;51448;51.660;5.824;2024-02-28T00:11:23;45.67;;;25.33;;
60502;SDS011;51448;51.660;5.824;2024-02-28T00:13:51;42.60;;;26.83;;
60502;SDS011;51448;51.660;5.824;2024-02-28T00:16:18;40.90;;;22.92;;
60502;SDS011;51448;51.660;5.824;2024-02-28T00:18:46;37.05;;;22.30;;
60502;SDS011;51448;51.660;5.824;2024-02-28T00:21:13;38.20;;;23.02;;
60502;SDS011;51448;51.660;5.824;2024-02-28T00:23:41;45.42;;;25.30;;
60502;SDS011;51448;51.660;5.824;2024-02-28T00:26:09;50.28;;;26.25;;
60502;SDS011;51448;51.660;5.824;2024-02-28T00:28:36;62.45;;;27.60;;
60502;SDS011;51448;51.660;5.824;2024-02-28T00:31:04;50.35;;;27.17;;
60502;SDS011;51448;51.660;5.824;2024-02-28T00:33:31;49.63;;;26.00;;
60502;SDS011;51448;51.660;5.824;2024-02-28T00:35:59;60.30;;;28.35;;
60502;SDS011;51448;51.660;5.824;2024-02-28T00:38:26;62.80;;;28.25;;
60502;SDS011;51448;51.660;5.824;2024-02-28T00:40:55;67.78;;;28.00;;
60502;SDS011;51448;51.660;5.824;2024-02-28T00:43:22;69.72;;;29.27;;
60502;SDS011;51448;51.660;5.824;2024-02-28T00:45:52;75.20;;;26.58;;
60502;SDS011;51448;51.660;5.824;2024-02-28T00:48:19;80.28;;;29.83;;
60502;SDS011;51448;51.660;5.824;2024-02-28T00:50:47;49.95;;;27.00;;
60502;SDS011;51448;51.660;5.824;2024-02-28T00:53:15;50.80;;;26.23;;
60502;SDS011;51448;51.660;5.824;2024-02-28T00:55:43;47.53;;;24.73;;
60502;SDS011;51448;51.660;5.824;2024-02-28T00:58:11;92.95;;;28.02;;
60502;SDS011;51448;51.660;5.824;2024-02-28T01:00:39;46.17;;;25.80;;
60502;SDS011;51448;51.660;5.824;2024-02-28T01:03:06;43.15;;;26.10;;
60502;SDS011;51448;51.660;5.824;2024-02-28T01:05:36;47.35;;;25.42;;
60502;SDS011;51448;51.660;5.824;2024-02-28T01:08:04;43.38;;;25.05;;
60502;SDS011;51448;51.660;5.824;2024-02-28T01:10:33;47.10;;;25.05;;
60502;SDS011;51448;51.660;5.824;2024-02-28T01:13:01;44.28;;;26.05;;
60502;SDS011;51448;51.660;5.824;2024-02-28T01:15:28;42.42;;;24.52;;
60502;SDS011;51448;51.660;5.824;2024-02-28T01:17:56;41.75;;;24.73;;
60502;SDS011;51448;51.660;5.824;2024-02-28T01:20:24;43.33;;;24.30;;
60502;SDS011;51448;51.660;5.824;2024-02-28T01:22:51;42.67;;;23.85;;
60502;SDS011;51448;51.660;5.824;2024-02-28T01:25:19;42.10;;;23.92;;
60502;SDS011;51448;51.660;5.824;2024-02-28T01:27:47;40.47;;;24.75;;
60502;SDS011;51448;51.660;5.824;2024-02-28T01:30:14;38.10;;;24.00;;
60502;SDS011;51448;51.660;5.824;2024-02-28T01:32:42;39.38;;;23.58;;
60502;SDS011;51448;51.660;5.824;2024-02-28T01:35:10;43.03;;;23.70;;
60502;SDS011;51448;51.660;5.824;2024-02-28T01:37:37;39.25;;;23.92;;
60502;SDS011;51448;51.660;5.824;2024-02-28T01:40:05;43.50;;;23.58;;
60502;SDS011;51448;51.660;5.824;2024-02-28T01:42:33;44.35;;;25.23;;
60502;SDS011;51448;51.660;5.824;2024-02-28T01:45:01;40.83;;;24.02;;
60502;SDS011;51448;51.660;5.824;2024-02-28T01:47:29;43.63;;;25.70;;
60502;SDS011;51448;51.660;5.824;2024-02-28T01:49:57;40.13;;;23.77;;
60502;SDS011;51448;51.660;5.824;2024-02-28T01:52:25;44.42;;;25.05;;
60502;SDS011;51448;51.660;5.824;2024-02-28T01:54:53;43.95;;;25.17;;
60502;SDS011;51448;51.660;5.824;2024-02-28T01:57:21;41.25;;;24.60;;
60502;SDS011;51448;51.660;5.824;2024-02-28T01:59:49;41.85;;;25.52;;
60502;SDS011;51448;51.660;5.824;2024-02-28T02:02:17;41.92;;;25.05;;
60502;SDS011;51448;51.660;5.824;2024-02-28T02:04:45;38.65;;;24.10;;
60502;SDS011;51448;51.660;5.824;2024-02-28T02:07:13;37.35;;;23.15;;
60502;SDS011;51448;51.660;5.824;2024-02-28T02:09:40;44.05;;;23.27;;
60502;SDS011;51448;51.660;5.824;2024-02-28T02:12:08;40.00;;;22.65;;
60502;SDS011;51448;51.660;5.824;2024-02-28T02:14:36;42.28;;;24.05;;
60502;SDS011;51448;51.660;5.824;2024-02-28T02:17:03;41.28;;;23.30;;
60502;SDS011;51448;51.660;5.824;2024-02-28T02:19:31;39.35;;;23.77;;
60502;SDS011;51448;51.660;5.824;2024-02-28T02:21:59;40.97;;;24.00;;
60502;SDS011;51448;51.660;5.824;2024-02-28T02:24:32;41.97;;;23.90;;
60502;SDS011;51448;51.660;5.824;2024-02-28T02:27:00;40.45;;;22.98;;
60502;SDS011;51448;51.660;5.824;2024-02-28T02:29:35;36.75;;;23.23;;
60502;SDS011;51448;51.660;5.824;2024-02-28T02:32:02;34.83;;;21.77;;
60502;SDS011;51448;51.660;5.824;2024-02-28T02:34:30;39.72;;;23.05;;
60502;SDS011;51448;51.660;5.824;2024-02-28T02:36:57;40.13;;;23.85;;
60502;SDS011;51448;51.660;5.824;2024-02-28T02:39:25;39.13;;;22.40;;
60502;SDS011;51448;51.660;5.824;2024-02-28T02:41:53;42.03;;;23.75;;
60502;SDS011;51448;51.660;5.824;2024-02-28T02:44:21;37.15;;;22.92;;
60502;SDS011;51448;51.660;5.824;2024-02-28T02:46:49;38.42;;;23.50;;
60502;SDS011;51448;51.660;5.824;2024-02-28T02:49:16;41.38;;;24.75;;
60502;SDS011;51448;51.660;5.824;2024-02-28T02:51:45;38.63;;;22.83;;
60502;SDS011;51448;51.660;5.824;2024-02-28T02:54:13;38.78;;;24.13;;
60502;SDS011;51448;51.660;5.824;2024-02-28T02:56:41;37.30;;;21.60;;
60502;SDS011;51448;51.660;5.824;2024-02-28T02:59:12;39.28;;;22.13;;
60502;SDS011;51448;51.660;5.824;2024-02-28T03:01:39;33.45;;;19.63;;
60502;SDS011;51448;51.660;5.824;2024-02-28T03:04:07;35.53;;;22.02;;
60502;SDS011;51448;51.660;5.824;2024-02-28T03:06:35;35.58;;;23.23;;
60502;SDS011;51448;51.660;5.824;2024-02-28T03:09:03;34.80;;;21.60;;
60502;SDS011;51448;51.660;5.824;2024-02-28T03:11:30;31.15;;;20.42;;
60502;SDS011;51448;51.660;5.824;2024-02-28T03:13:58;36.85;;;21.65;;
60502;SDS011;51448;51.660;5.824;2024-02-28T03:16:25;37.00;;;22.10;;
60502;SDS011;51448;51.660;5.824;2024-02-28T03:18:53;43.42;;;24.48;;
60502;SDS011;51448;51.660;5.824;2024-02-28T03:21:21;34.08;;;21.38;;
60502;SDS011;51448;51.660;5.824;2024-02-28T03:23:49;32.17;;;20.40;;
60502;SDS011;51448;51.660;5.824;2024-02-28T03:26:17;31.70;;;20.10;;
60502;SDS011;51448;51.660;5.824;2024-02-28T03:28:44;36.70;;;22.85;;
60502;SDS011;51448;51.660;5.824;2024-02-28T03:31:12;35.20;;;22.17;;
60502;SDS011;51448;51.660;5.824;2024-02-28T03:33:39;33.28;;;20.13;;
60502;SDS011;51448;51.660;5.824;2024-02-28T03:36:07;35.10;;;20.70;;
60502;SDS011;51448;51.660;5.824;2024-02-28T03:38:35;33.80;;;21.13;;
60502;SDS011;51448;51.660;5.824;2024-02-28T03:41:03;33.20;;;20.60;;
60502;SDS011;51448;51.660;5.824;2024-02-28T03:43:32;40.60;;;23.00;;
60502;SDS011;51448;51.660;5.824;2024-02-28T03:46:00;39.33;;;21.80;;
60502;SDS011;51448;51.660;5.824;2024-02-28T03:48:28;42.63;;;24.08;;
60502;SDS011;51448;51.660;5.824;2024-02-28T03:50:55;39.40;;;22.23;;
60502;SDS011;51448;51.660;5.824;2024-02-28T03:53:23;40.97;;;24.67;;
60502;SDS011;51448;51.660;5.824;2024-02-28T03:55:50;41.28;;;25.80;;
60502;SDS011;51448;51.660;5.824;2024-02-28T03:58:18;41.80;;;25.65;;
60502;SDS011;51448;51.660;5.824;2024-02-28T04:00:45;41.97;;;24.77;;
60502;SDS011;51448;51.660;5.824;2024-02-28T04:03:14;45.72;;;26.35;;
60502;SDS011;51448;51.660;5.824;2024-02-28T04:05:41;50.42;;;28.27;;
60502;SDS011;51448;51.660;5.824;2024-02-28T04:08:09;45.33;;;25.88;;
60502;SDS011;51448;51.660;5.824;2024-02-28T04:10:37;50.05;;;28.38;;
60502;SDS011;51448;51.660;5.824;2024-02-28T04:13:05;42.35;;;25.63;;
60502;SDS011;51448;51.660;5.824;2024-02-28T04:15:32;45.47;;;25.98;;
60502;SDS011;51448;51.660;5.824;2024-02-28T04:18:00;48.55;;;28.95;;
60502;SDS011;51448;51.660;5.824;2024-02-28T04:20:28;48.30;;;28.92;;
60502;SDS011;51448;51.660;5.824;2024-02-28T04:22:55;55.67;;;26.30;;
60502;SDS011;51448;51.660;5.824;2024-02-28T04:25:23;60.45;;;29.13;;
60502;SDS011;51448;51.660;5.824;2024-02-28T04:27:50;50.75;;;27.30;;
60502;SDS011;51448;51.660;5.824;2024-02-28T04:30:18;47.42;;;29.45;;
60502;SDS011;51448;51.660;5.824;2024-02-28T04:32:46;61.47;;;27.83;;
60502;SDS011;51448;51.660;5.824;2024-02-28T04:35:13;61.45;;;27.63;;
60502;SDS011;51448;51.660;5.824;2024-02-28T04:37:45;44.97;;;26.65;;
60502;SDS011;51448;51.660;5.824;2024-02-28T04:40:13;50.17;;;27.48;;
60502;SDS011;51448;51.660;5.824;2024-02-28T04:42:42;48.15;;;28.40;;
60502;SDS011;51448;51.660;5.824;2024-02-28T04:45:10;46.28;;;28.77;;
60502;SDS011;51448;51.660;5.824;2024-02-28T04:47:38;45.90;;;28.30;;
60502;SDS011;51448;51.660;5.824;2024-02-28T04:50:11;68.38;;;30.38;;
60502;SDS011;51448;51.660;5.824;2024-02-28T04:52:39;42.38;;;27.48;;
60502;SDS011;51448;51.660;5.824;2024-02-28T04:55:07;45.35;;;28.00;;
60502;SDS011;51448;51.660;5.824;2024-02-28T04:57:34;44.47;;;27.83;;
60502;SDS011;51448;51.660;5.824;2024-02-28T05:00:02;48.30;;;27.90;;
60502;SDS011;51448;51.660;5.824;2024-02-28T05:02:30;41.55;;;27.75;;
60502;SDS011;51448;51.660;5.824;2024-02-28T05:04:58;45.75;;;28.02;;
60502;SDS011;51448;51.660;5.824;2024-02-28T05:07:26;39.72;;;26.58;;
60502;SDS011;51448;51.660;5.824;2024-02-28T05:09:53;41.80;;;27.30;;
60502;SDS011;51448;51.660;5.824;2024-02-28T05:12:21;45.38;;;28.55;;
60502;SDS011;51448;51.660;5.824;2024-02-28T05:14:48;39.95;;;27.58;;
60502;SDS011;51448;51.660;5.824;2024-02-28T05:17:21;43.13;;;29.55;;
60502;SDS011;51448;51.660;5.824;2024-02-28T05:19:48;41.00;;;28.13;;
60502;SDS011;51448;51.660;5.824;2024-02-28T05:22:16;41.13;;;27.02;;
60502;SDS011;51448;51.660;5.824;2024-02-28T05:24:45;42.38;;;27.02;;
60502;SDS011;51448;51.660;5.824;2024-02-28T05:27:14;47.08;;;29.33;;
60502;SDS011;51448;51.660;5.824;2024-02-28T05:29:41;44.05;;;27.88;;
60502;SDS011;51448;51.660;5.824;2024-02-28T05:32:10;47.63;;;31.05;;
60502;SDS011;51448;51.660;5.824;2024-02-28T05:34:37;44.17;;;28.52;;
60502;SDS011;51448;51.660;5.824;2024-02-28T05:37:05;50.75;;;28.90;;
60502;SDS011;51448;51.660;5.824;2024-02-28T05:39:33;44.35;;;27.95;;
60502;SDS011;51448;51.660;5.824;2024-02-28T05:42:01;41.42;;;28.73;;
60502;SDS011;51448;51.660;5.824;2024-02-28T05:44:29;44.35;;;28.35;;
60502;SDS011;51448;51.660;5.824;2024-02-28T05:46:57;49.83;;;30.98;;
60502;SDS011;51448;51.660;5.824;2024-02-28T05:49:24;45.83;;;29.42;;
60502;SDS011;51448;51.660;5.824;2024-02-28T05:51:52;50.28;;;29.80;;
60502;SDS011;51448;51.660;5.824;2024-02-28T05:54:21;63.75;;;30.08;;
60502;SDS011;51448;51.660;5.824;2024-02-28T05:56:51;54.55;;;30.58;;
60502;SDS011;51448;51.660;5.824;2024-02-28T05:59:19;69.13;;;32.00;;
60502;SDS011;51448;51.660;5.824;2024-02-28T06:01:47;73.03;;;34.05;;
60502;SDS011;51448;51.660;5.824;2024-02-28T06:04:15;64.10;;;32.97;;
60502;SDS011;51448;51.660;5.824;2024-02-28T06:06:43;55.03;;;31.55;;
60502;SDS011;51448;51.660;5.824;2024-02-28T06:09:11;61.85;;;32.60;;
60502;SDS011;51448;51.660;5.824;2024-02-28T06:11:38;62.38;;;33.08;;
60502;SDS011;51448;51.660;5.824;2024-02-28T06:14:06;55.25;;;31.75;;
60502;SDS011;51448;51.660;5.824;2024-02-28T06:16:34;60.67;;;32.38;;
60502;SDS011;51448;51.660;5.824;2024-02-28T06:19:01;56.10;;;30.60;;
60502;SDS011;51448;51.660;5.824;2024-02-28T06:21:33;58.63;;;32.40;;
60502;SDS011;51448;51.660;5.824;2024-02-28T06:24:00;60.20;;;32.70;;
60502;SDS011;51448;51.660;5.824;2024-02-28T06:26:28;58.63;;;31.77;;
60502;SDS011;51448;51.660;5.824;2024-02-28T06:28:55;56.88;;;32.38;;
60502;SDS011;51448;51.660;5.824;2024-02-28T06:31:28;57.38;;;31.50;;
60502;SDS011;51448;51.660;5.824;2024-02-28T06:34:02;57.00;;;33.22;;
60502;SDS011;51448;51.660;5.824;2024-02-28T06:36:31;65.00;;;33.42;;
60502;SDS011;51448;51.660;5.824;2024-02-28T06:38:58;62.78;;;32.95;;
60502;SDS011;51448;51.660;5.824;2024-02-28T06:41:26;63.10;;;34.22;;
60502;SDS011;51448;51.660;5.824;2024-02-28T06:43:53;66.45;;;33.90;;
60502;SDS011;51448;51.660;5.824;2024-02-28T06:46:21;66.68;;;33.22;;
60502;SDS011;51448;51.660;5.824;2024-02-28T06:48:48;71.50;;;36.55;;
60502;SDS011;51448;51.660;5.824;2024-02-28T06:51:16;65.25;;;34.50;;
60502;SDS011;51448;51.660;5.824;2024-02-28T06:53:44;73.57;;;36.92;;
60502;SDS011;51448;51.660;5.824;2024-02-28T06:56:12;72.10;;;35.03;;
60502;SDS011;51448;51.660;5.824;2024-02-28T06:58:40;71.50;;;34.97;;
60502;SDS011;51448;51.660;5.824;2024-02-28T07:01:08;68.43;;;35.53;;
60502;SDS011;51448;51.660;5.824;2024-02-28T07:03:39;75.80;;;36.05;;
60502;SDS011;51448;51.660;5.824;2024-02-28T07:06:07;74.22;;;34.03;;
60502;SDS011;51448;51.660;5.824;2024-02-28T07:08:35;76.25;;;36.30;;
60502;SDS011;51448;51.660;5.824;2024-02-28T07:11:02;73.18;;;35.58;;
60502;SDS011;51448;51.660;5.824;2024-02-28T07:13:30;78.47;;;36.53;;
60502;SDS011;51448;51.660;5.824;2024-02-28T07:15:58;78.88;;;40.50;;
60502;SDS011;51448;51.660;5.824;2024-02-28T07:18:25;82.20;;;37.60;;
60502;SDS011;51448;51.660;5.824;2024-02-28T07:20:55;86.95;;;38.67;;
60502;SDS011;51448;51.660;5.824;2024-02-28T07:23:23;86.05;;;39.58;;
60502;SDS011;51448;51.660;5.824;2024-02-28T07:25:50;80.78;;;37.45;;
60502;SDS011;51448;51.660;5.824;2024-02-28T07:28:18;73.95;;;37.63;;
60502;SDS011;51448;51.660;5.824;2024-02-28T07:30:46;71.15;;;39.22;;
60502;SDS011;51448;51.660;5.824;2024-02-28T07:33:15;79.78;;;39.60;;
60502;SDS011;51448;51.660;5.824;2024-02-28T07:35:43;71.80;;;39.35;;
60502;SDS011;51448;51.660;5.824;2024-02-28T07:38:14;69.78;;;36.83;;
60502;SDS011;51448;51.660;5.824;2024-02-28T07:40:44;69.60;;;39.05;;
60502;SDS011;51448;51.660;5.824;2024-02-28T07:43:12;66.43;;;36.03;;
60502;SDS011;51448;51.660;5.824;2024-02-28T07:45:39;71.20;;;36.92;;
60502;SDS011;51448;51.660;5.824;2024-02-28T07:48:07;60.28;;;36.00;;
60502;SDS011;51448;51.660;5.824;2024-02-28T07:50:35;63.08;;;36.42;;
60502;SDS011;51448;51.660;5.824;2024-02-28T07:53:03;61.67;;;35.03;;
60502;SDS011;51448;51.660;5.824;2024-02-28T07:55:31;65.85;;;37.08;;
60502;SDS011;51448;51.660;5.824;2024-02-28T07:57:58;61.95;;;34.83;;
60502;SDS011;51448;51.660;5.824;2024-02-28T08:00:26;61.75;;;35.97;;
60502;SDS011;51448;51.660;5.824;2024-02-28T08:02:54;59.70;;;35.20;;
60502;SDS011;51448;51.660;5.824;2024-02-28T08:05:21;58.63;;;33.95;;
60502;SDS011;51448;51.660;5.824;2024-02-28T08:07:49;57.67;;;33.33;;
60502;SDS011;51448;51.660;5.824;2024-02-28T08:10:16;50.97;;;33.08;;
60502;SDS011;51448;51.660;5.824;2024-02-28T08:12:44;58.17;;;34.33;;
60502;SDS011;51448;51.660;5.824;2024-02-28T08:15:12;54.60;;;32.53;;
60502;SDS011;51448;51.660;5.824;2024-02-28T08:17:39;56.97;;;32.90;;
60502;SDS011;51448;51.660;5.824;2024-02-28T08:20:07;61.03;;;34.53;;
60502;SDS011;51448;51.660;5.824;2024-02-28T08:22:35;57.92;;;34.50;;
60502;SDS011;51448;51.660;5.824;2024-02-28T08:25:02;58.97;;;35.20;;
60502;SDS011;51448;51.660;5.824;2024-02-28T08:27:31;54.47;;;32.42;;
60502;SDS011;51448;51.660;5.824;2024-02-28T08:30:00;53.20;;;33.30;;
60502;SDS011;51448;51.660;5.824;2024-02-28T08:32:28;53.88;;;33.80;;
60502;SDS011;51448;51.660;5.824;2024-02-28T08:34:55;50.35;;;32.65;;
60502;SDS011;51448;51.660;5.824;2024-02-28T08:37:25;56.55;;;33.35;;
60502;SDS011;51448;51.660;5.824;2024-02-28T08:39:55;54.88;;;33.88;;
60502;SDS011;51448;51.660;5.824;2024-02-28T08:42:25;57.88;;;33.70;;
60502;SDS011;51448;51.660;5.824;2024-02-28T08:44:56;55.30;;;32.83;;
60502;SDS011;51448;51.660;5.824;2024-02-28T08:47:24;56.92;;;34.85;;
60502;SDS011;51448;51.660;5.824;2024-02-28T08:49:55;56.15;;;33.70;;
60502;SDS011;51448;51.660;5.824;2024-02-28T08:52:22;56.90;;;33.60;;
60502;SDS011;51448;51.660;5.824;2024-02-28T08:54:50;53.08;;;33.47;;
60502;SDS011;51448;51.660;5.824;2024-02-28T08:57:18;55.67;;;34.35;;
60502;SDS011;51448;51.660;5.824;2024-02-28T08:59:47;56.70;;;33.53;;
60502;SDS011;51448;51.660;5.824;2024-02-28T09:02:18;53.50;;;33.08;;
60502;SDS011;51448;51.660;5.824;2024-02-28T09:04:46;58.50;;;34.08;;
60502;SDS011;51448;51.660;5.824;2024-02-28T09:07:18;56.78;;;33.97;;
60502;SDS011;51448;51.660;5.824;2024-02-28T09:09:48;62.65;;;33.75;;
60502;SDS011;51448;51.660;5.824;2024-02-28T09:12:16;53.67;;;32.78;;
60502;SDS011;51448;51.660;5.824;2024-02-28T09:14:44;49.90;;;31.67;;
60502;SDS011;51448;51.660;5.824;2024-02-28T09:17:12;52.00;;;33.38;;
60502;SDS011;51448;51.660;5.824;2024-02-28T09:19:40;52.30;;;31.45;;
60502;SDS011;51448;51.660;5.824;2024-02-28T09:22:07;51.05;;;32.65;;
60502;SDS011;51448;51.660;5.824;2024-02-28T09:24:36;53.47;;;32.10;;
60502;SDS011;51448;51.660;5.824;2024-02-28T09:27:05;49.30;;;30.55;;
60502;SDS011;51448;51.660;5.824;2024-02-28T09:29:33;52.72;;;32.15;;
60502;SDS011;51448;51.660;5.824;2024-02-28T09:32:01;49.72;;;30.90;;
60502;SDS011;51448;51.660;5.824;2024-02-28T09:34:28;55.30;;;31.10;;
60502;SDS011;51448;51.660;5.824;2024-02-28T09:36:56;48.95;;;30.25;;
60502;SDS011;51448;51.660;5.824;2024-02-28T09:39:23;50.05;;;29.50;;
60502;SDS011;51448;51.660;5.824;2024-02-28T09:41:52;45.05;;;27.83;;
60502;SDS011;51448;51.660;5.824;2024-02-28T09:44:19;46.17;;;28.98;;
60502;SDS011;51448;51.660;5.824;2024-02-28T09:46:51;43.83;;;29.23;;
60502;SDS011;51448;51.660;5.824;2024-02-28T09:49:19;47.83;;;30.17;;
60502;SDS011;51448;51.660;5.824;2024-02-28T09:51:48;42.17;;;27.98;;
60502;SDS011;51448;51.660;5.824;2024-02-28T09:54:19;44.30;;;27.98;;
60502;SDS011;51448;51.660;5.824;2024-02-28T09:56:47;42.35;;;28.50;;
60502;SDS011;51448;51.660;5.824;2024-02-28T09:59:18;40.72;;;27.40;;
60502;SDS011;51448;51.660;5.824;2024-02-28T10:01:58;49.22;;;28.13;;
60502;SDS011;51448;51.660;5.824;2024-02-28T10:04:28;40.08;;;26.27;;
60502;SDS011;51448;51.660;5.824;2024-02-28T10:06:56;41.78;;;26.30;;
60502;SDS011;51448;51.660;5.824;2024-02-28T10:09:24;40.15;;;25.10;;
60502;SDS011;51448;51.660;5.824;2024-02-28T10:11:52;37.55;;;25.55;;
60502;SDS011;51448;51.660;5.824;2024-02-28T10:14:19;39.83;;;24.85;;
60502;SDS011;51448;51.660;5.824;2024-02-28T10:16:47;41.00;;;26.08;;
60502;SDS011;51448;51.660;5.824;2024-02-28T10:19:14;39.17;;;26.42;;
60502;SDS011;51448;51.660;5.824;2024-02-28T10:21:42;35.53;;;24.67;;
60502;SDS011;51448;51.660;5.824;2024-02-28T10:24:11;33.90;;;24.98;;
60502;SDS011;51448;51.660;5.824;2024-02-28T10:29:11;39.50;;;25.33;;
60502;SDS011;51448;51.660;5.824;2024-02-28T10:31:39;37.45;;;25.90;;
60502;SDS011;51448;51.660;5.824;2024-02-28T10:34:08;37.45;;;23.25;;
60502;SDS011;51448;51.660;5.824;2024-02-28T10:36:36;45.05;;;26.88;;
60502;SDS011;51448;51.660;5.824;2024-02-28T10:39:06;33.47;;;23.90;;
60502;SDS011;51448;51.660;5.824;2024-02-28T10:41:37;36.72;;;23.20;;
60502;SDS011;51448;51.660;5.824;2024-02-28T10:44:06;32.40;;;22.65;;
60502;SDS011;51448;51.660;5.824;2024-02-28T10:46:34;32.33;;;22.73;;
60502;SDS011;51448;51.660;5.824;2024-02-28T10:49:05;36.67;;;23.33;;
60502;SDS011;51448;51.660;5.824;2024-02-28T10:51:36;34.42;;;23.35;;
60502;SDS011;51448;51.660;5.824;2024-02-28T10:54:09;30.55;;;22.42;;
60502;SDS011;51448;51.660;5.824;2024-02-28T10:56:40;30.98;;;22.05;;
60502;SDS011;51448;51.660;5.824;2024-02-28T10:59:10;34.67;;;22.23;;
60502;SDS011;51448;51.660;5.824;2024-02-28T11:01:41;33.15;;;22.35;;
60502;SDS011;51448;51.660;5.824;2024-02-28T11:04:12;31.58;;;23.30;;
60502;SDS011;51448;51.660;5.824;2024-02-28T11:06:49;34.35;;;20.42;;
60502;SDS011;51448;51.660;5.824;2024-02-28T11:09:24;32.17;;;21.90;;
60502;SDS011;51448;51.660;5.824;2024-02-28T11:11:54;31.77;;;20.73;;
60502;SDS011;51448;51.660;5.824;2024-02-28T11:14:23;31.05;;;19.83;;
60502;SDS011;51448;51.660;5.824;2024-02-28T11:17:04;36.28;;;21.98;;
60502;SDS011;51448;51.660;5.824;2024-02-28T11:19:33;33.10;;;21.20;;
60502;SDS011;51448;51.660;5.824;2024-02-28T11:22:02;32.63;;;21.75;;
60502;SDS011;51448;51.660;5.824;2024-02-28T11:24:33;30.63;;;21.10;;
60502;SDS011;51448;51.660;5.824;2024-02-28T11:27:04;33.55;;;20.75;;
60502;SDS011;51448;51.660;5.824;2024-02-28T11:29:33;32.22;;;20.77;;
60502;SDS011;51448;51.660;5.824;2024-02-28T11:32:01;28.95;;;20.92;;
60502;SDS011;51448;51.660;5.824;2024-02-28T11:34:28;34.42;;;22.00;;
60502;SDS011;51448;51.660;5.824;2024-02-28T11:36:56;30.50;;;20.58;;
60502;SDS011;51448;51.660;5.824;2024-02-28T11:39:26;28.30;;;20.25;;
60502;SDS011;51448;51.660;5.824;2024-02-28T11:41:54;36.38;;;22.30;;
60502;SDS011;51448;51.660;5.824;2024-02-28T11:44:22;31.95;;;21.55;;
60502;SDS011;51448;51.660;5.824;2024-02-28T11:46:50;26.75;;;20.48;;
60502;SDS011;51448;51.660;5.824;2024-02-28T11:49:17;26.60;;;20.08;;
60502;SDS011;51448;51.660;5.824;2024-02-28T11:51:45;31.38;;;19.88;;
60502;SDS011;51448;51.660;5.824;2024-02-28T11:54:16;28.65;;;20.63;;
60502;SDS011;51448;51.660;5.824;2024-02-28T11:56:45;30.60;;;21.02;;
60502;SDS011;51448;51.660;5.824;2024-02-28T11:59:13;30.80;;;21.52;;
60502;SDS011;51448;51.660;5.824;2024-02-28T12:01:42;31.13;;;20.13;;
60502;SDS011;51448;51.660;5.824;2024-02-28T12:04:14;30.27;;;20.65;;
60502;SDS011;51448;51.660;5.824;2024-02-28T12:06:41;29.10;;;20.40;;
60502;SDS011;51448;51.660;5.824;2024-02-28T12:09:12;28.13;;;20.42;;
60502;SDS011;51448;51.660;5.824;2024-02-28T12:11:54;30.33;;;21.23;;
60502;SDS011;51448;51.660;5.824;2024-02-28T12:14:21;31.05;;;19.95;;
60502;SDS011;51448;51.660;5.824;2024-02-28T12:16:49;27.83;;;20.08;;
60502;SDS011;51448;51.660;5.824;2024-02-28T12:19:16;31.35;;;19.40;;
60502;SDS011;51448;51.660;5.824;2024-02-28T12:21:47;30.77;;;21.00;;
60502;SDS011;51448;51.660;5.824;2024-02-28T12:24:15;31.83;;;21.75;;
60502;SDS011;51448;51.660;5.824;2024-02-28T12:26:43;35.75;;;25.30;;
60502;SDS011;51448;51.660;5.824;2024-02-28T12:29:11;36.45;;;23.92;;
60502;SDS011;51448;51.660;5.824;2024-02-28T12:31:38;35.25;;;25.10;;
60502;SDS011;51448;51.660;5.824;2024-02-28T12:34:06;39.00;;;24.92;;
60502;SDS011;51448;51.660;5.824;2024-02-28T12:36:34;36.40;;;25.80;;
60502;SDS011;51448;51.660;5.824;2024-02-28T12:39:02;42.13;;;26.73;;
60502;SDS011;51448;51.660;5.824;2024-02-28T12:41:29;39.97;;;26.50;;
60502;SDS011;51448;51.660;5.824;2024-02-28T12:43:57;36.03;;;24.55;;
60502;SDS011;51448;51.660;5.824;2024-02-28T12:46:24;43.95;;;28.27;;
60502;SDS011;51448;51.660;5.824;2024-02-28T12:48:52;41.67;;;26.55;;
60502;SDS011;51448;51.660;5.824;2024-02-28T12:54:23;36.63;;;26.10;;
60502;SDS011;51448;51.660;5.824;2024-02-28T12:56:51;41.92;;;28.08;;
60502;SDS011;51448;51.660;5.824;2024-02-28T12:59:18;40.00;;;27.30;;
60502;SDS011;51448;51.660;5.824;2024-02-28T13:01:46;47.50;;;29.02;;
60502;SDS011;51448;51.660;5.824;2024-02-28T13:04:15;41.03;;;28.67;;
60502;SDS011;51448;51.660;5.824;2024-02-28T13:06:43;39.47;;;27.83;;
60502;SDS011;51448;51.660;5.824;2024-02-28T13:09:10;42.83;;;28.92;;
60502;SDS011;51448;51.660;5.824;2024-02-28T13:11:42;41.90;;;28.58;;
60502;SDS011;51448;51.660;5.824;2024-02-28T13:14:09;40.75;;;27.30;;
60502;SDS011;51448;51.660;5.824;2024-02-28T13:16:38;35.03;;;25.08;;
60502;SDS011;51448;51.660;5.824;2024-02-28T13:19:05;37.97;;;24.40;;
60502;SDS011;51448;51.660;5.824;2024-02-28T13:21:33;37.25;;;24.52;;
60502;SDS011;51448;51.660;5.824;2024-02-28T13:24:01;37.97;;;25.10;;
60502;SDS011;51448;51.660;5.824;2024-02-28T13:26:29;36.65;;;22.95;;
60502;SDS011;51448;51.660;5.824;2024-02-28T13:28:56;38.10;;;24.13;;
60502;SDS011;51448;51.660;5.824;2024-02-28T13:31:24;40.50;;;22.98;;
60502;SDS011;51448;51.660;5.824;2024-02-28T13:33:52;33.78;;;23.20;;
60502;SDS011;51448;51.660;5.824;2024-02-28T13:36:19;39.70;;;23.80;;
60502;SDS011;51448;51.660;5.824;2024-02-28T13:38:47;36.22;;;21.80;;
60502;SDS011;51448;51.660;5.824;2024-02-28T13:41:14;38.38;;;23.23;;
60502;SDS011;51448;51.660;5.824;2024-02-28T13:43:43;38.13;;;22.58;;
60502;SDS011;51448;51.660;5.824;2024-02-28T13:46:11;33.03;;;20.10;;
60502;SDS011;51448;51.660;5.824;2024-02-28T13:48:39;33.03;;;21.85;;
60502;SDS011;51448;51.660;5.824;2024-02-28T13:51:06;33.45;;;19.50;;
60502;SDS011;51448;51.660;5.824;2024-02-28T13:53:34;35.05;;;20.45;;
60502;SDS011;51448;51.660;5.824;2024-02-28T13:56:02;34.85;;;20.08;;
60502;SDS011;51448;51.660;5.824;2024-02-28T13:58:29;29.88;;;19.00;;
60502;SDS011;51448;51.660;5.824;2024-02-28T14:01:09;34.78;;;20.23;;
60502;SDS011;51448;51.660;5.824;2024-02-28T14:03:37;35.28;;;19.90;;
60502;SDS011;51448;51.660;5.824;2024-02-28T14:06:09;31.88;;;19.15;;
60502;SDS011;51448;51.660;5.824;2024-02-28T14:08:36;35.53;;;19.88;;
60502;SDS011;51448;51.660;5.824;2024-02-28T14:11:07;32.65;;;17.98;;
60502;SDS011;51448;51.660;5.824;2024-02-28T14:13:35;29.15;;;17.55;;
60502;SDS011;51448;51.660;5.824;2024-02-28T14:16:02;34.83;;;19.48;;
60502;SDS011;51448;51.660;5.824;2024-02-28T14:18:31;30.20;;;17.58;;
60502;SDS011;51448;51.660;5.824;2024-02-28T14:20:58;29.00;;;17.33;;
60502;SDS011;51448;51.660;5.824;2024-02-28T14:23:26;21.58;;;14.68;;
60502;SDS011;51448;51.660;5.824;2024-02-28T14:25:53;25.38;;;15.60;;
60502;SDS011;51448;51.660;5.824;2024-02-28T14:28:21;25.48;;;14.57;;
60502;SDS011;51448;51.660;5.824;2024-02-28T14:30:48;19.63;;;13.65;;
60502;SDS011;51448;51.660;5.824;2024-02-28T14:33:16;24.00;;;13.80;;